Piarco, Trinidad And Tobago

6:47 PM AST on February 10, 2016 (GMT -0400)
Mount St. Benedict | | Change Station
CLOSE
Current Station
Personal Weather Station
Location: St. Augustine, ST GEORGE
Elevation: 210 ft
Nearby Weather Stations

Elev 210 ft 10.65 °N, 61.40 °W | Updated 12 seconds ago

Partly Cloudy
Partly Cloudy
80.8 °F
Feels Like 81 °F
N
3.6
Wind Variable Wind from ENE
Gusts 4.9 mph

Today
High -- | Low -- °F
--% Chance of Precip.
Yesterday
High -- | Low -- °F
Precip. -- in
Pressure 29.98 in
Visibility 5.0 miles
Clouds Few 2100 ft
Heat Index 81 °F
Dew Point 56 °F
Humidity 43%
Rainfall 0.00 in
Snow Depth Not available.
6:27 AM 6:12 PM
Waxing Crescent, 7% visible
METAR TTPP 102200Z 09010KT 8000NNW 9999 FEW021 28/22 Q1015 NOSIG RMK SMOKE NNW
Pressure 29.98 in
Visibility 5.0 miles
Clouds Few 2100 ft
Heat Index 81 °F
Dew Point 56 °F
Humidity 43%
Rainfall 0.00 in
Snow Depth Not available.
6:27 AM 6:12 PM
Waxing Crescent, 7% visible
METAR TTPP 102200Z 09010KT 8000NNW 9999 FEW021 28/22 Q1015 NOSIG RMK SMOKE NNW

10-Day Weather Forecast

No radar image for this location.
×

Almanac

Astronomy

Feb. 10, 2016 Rise Set
Actual Time
Civil Twilight
Nautical Twilight
Astronomical Twilight
Moon
Length of Visible Light
Length of Day
Tomorrow will be .
, % of the Moon is Illuminated

Today's Extremes

Country Highs Country Lows

Community

WunderPhotos

Upload Photos

1,891,940 photos uploaded!

WunderBlog® & News

Nearby

Air Quality

  Air Quality AQ Index Pollutant
Not available.

Snow Depth

Station Depth Elevation

Earthquake Activity

City Distance Mag. Time & Date
Minimum magnitude displayed is 2.5.

Coastal Water Temperatures

Place Temperature

Stations

Nearby Weather Stations

Station Location Temp. Windchill Dew Point Humidity Wind Precip. Elev Updated Type